Time;durP1;ratioP1;P1;durP2;ratioP2;P2;SDS_P1;SDS_P2;PMS_P1;PMS_P2;Temp;Humidity;BMP_temperature;BMP_pressure;BME280_temperature;BME280_humidity;BME280_pressure;Samples;Min_cycle;Max_cycle;Signal;HPM_P1;HPM_P2
2022/03/08 00:00:37;;;;;;;7.70;3.07;;;3.90;37.50;;;;;;5054573;28;20177;-51
2022/03/08 00:03:04;;;;;;;5.43;3.22;;;3.90;37.80;;;;;;5054524;28;20404;-51
2022/03/08 00:05:30;;;;;;;6.78;3.20;;;3.80;37.80;;;;;;5054341;28;20200;-51
2022/03/08 00:07:57;;;;;;;4.33;2.80;;;3.80;37.70;;;;;;5053086;28;20601;-51
2022/03/08 00:10:22;;;;;;;3.85;2.45;;;3.80;37.50;;;;;;5054488;28;20748;-51
2022/03/08 00:12:49;;;;;;;7.27;2.67;;;3.80;37.60;;;;;;5053887;28;20247;-51
2022/03/08 00:15:17;;;;;;;8.73;3.95;;;3.80;37.60;;;;;;5054214;28;20218;-51
2022/03/08 00:17:44;;;;;;;8.90;3.00;;;3.80;37.50;;;;;;5054207;28;20700;-51
2022/03/08 00:20:12;;;;;;;2.95;2.60;;;3.80;37.30;;;;;;5052780;28;20545;-51
2022/03/08 00:22:38;;;;;;;4.65;2.78;;;3.70;37.50;;;;;;5053770;28;20176;-51
2022/03/08 00:25:05;;;;;;;3.20;2.13;;;3.60;37.60;;;;;;5054184;28;20196;-51
2022/03/08 00:27:31;;;;;;;3.75;2.25;;;3.60;37.90;;;;;;5054218;28;20173;-51
2022/03/08 00:29:58;;;;;;;4.85;3.58;;;3.50;37.70;;;;;;5053997;28;20165;-51
2022/03/08 00:32:24;;;;;;;4.40;2.60;;;3.50;37.80;;;;;;5052513;28;20197;-51
2022/03/08 00:34:50;;;;;;;3.72;2.28;;;3.50;37.80;;;;;;5052661;28;20170;-51
2022/03/08 00:37:16;;;;;;;12.45;2.63;;;3.50;38.00;;;;;;5052506;28;20181;-51
2022/03/08 00:39:42;;;;;;;4.90;3.73;;;3.50;37.80;;;;;;5053974;28;20525;-51
2022/03/08 00:42:12;;;;;;;5.33;4.13;;;3.50;37.90;;;;;;5053706;28;20161;-51
2022/03/08 00:44:41;;;;;;;3.15;2.08;;;3.40;37.90;;;;;;5053958;28;20412;-51
2022/03/08 00:47:09;;;;;;;2.85;1.83;;;3.40;37.70;;;;;;5052521;28;20670;-50
2022/03/08 00:49:36;;;;;;;2.28;1.75;;;3.40;37.70;;;;;;5052349;28;20216;-51
2022/03/08 00:52:03;;;;;;;3.08;1.90;;;3.40;37.90;;;;;;5052297;28;20700;-51
2022/03/08 00:54:28;;;;;;;2.42;1.35;;;3.30;37.90;;;;;;5053543;28;20172;-50
2022/03/08 00:56:54;;;;;;;10.93;3.57;;;3.50;37.90;;;;;;5052202;28;20173;-50
2022/03/08 00:59:20;;;;;;;4.33;2.57;;;3.30;37.90;;;;;;5053717;28;20169;-50
2022/03/08 01:01:45;;;;;;;5.67;2.33;;;3.30;37.80;;;;;;5052113;28;20491;-50
2022/03/08 01:04:11;;;;;;;4.10;2.77;;;3.30;38.10;;;;;;5053366;28;20655;-50
2022/03/08 01:06:37;;;;;;;3.40;1.80;;;3.20;37.90;;;;;;5052028;28;20221;-50
2022/03/08 01:09:03;;;;;;;8.63;3.30;;;3.20;37.80;;;;;;5052052;28;20168;-50
2022/03/08 01:11:29;;;;;;;3.92;3.05;;;3.20;37.70;;;;;;5053040;28;20224;-50
2022/03/08 01:13:55;;;;;;;3.80;2.27;;;3.10;38.00;;;;;;5053577;28;20177;-50
2022/03/08 01:16:21;;;;;;;4.22;1.85;;;3.10;38.30;;;;;;5051960;28;20203;-50
2022/03/08 01:18:48;;;;;;;3.40;2.83;;;3.10;38.30;;;;;;5053242;28;20648;-50
2022/03/08 01:21:14;;;;;;;4.80;2.42;;;3.00;38.20;;;;;;5053328;28;20414;-50
2022/03/08 01:23:42;;;;;;;4.13;2.25;;;3.00;38.10;;;;;;5053445;28;20169;-50
2022/03/08 01:26:07;;;;;;;4.25;2.90;;;3.00;38.20;;;;;;5053181;28;20173;-50
2022/03/08 01:28:34;;;;;;;7.80;2.63;;;3.00;38.10;;;;;;5051885;28;20176;-50
2022/03/08 01:31:00;;;;;;;2.60;2.15;;;2.90;38.40;;;;;;5053040;28;20169;-50
2022/03/08 01:33:26;;;;;;;2.63;2.20;;;2.90;38.60;;;;;;5053886;28;20257;-50
2022/03/08 01:35:52;;;;;;;3.40;1.77;;;2.80;38.60;;;;;;5055907;28;20649;-50
2022/03/08 01:38:18;;;;;;;3.67;2.53;;;2.80;38.50;;;;;;5057372;28;20200;-50
2022/03/08 01:40:43;;;;;;;2.77;1.90;;;3.00;38.50;;;;;;5057035;28;20648;-50
2022/03/08 01:43:09;;;;;;;3.50;2.90;;;2.80;38.70;;;;;;5057234;28;20410;-50
2022/03/08 01:45:35;;;;;;;2.27;0.90;;;2.80;38.50;;;;;;5057263;28;20229;-50
2022/03/08 01:48:01;;;;;;;2.70;1.80;;;2.80;38.40;;;;;;5056447;28;20222;-50
2022/03/08 01:50:27;;;;;;;2.90;1.40;;;2.80;38.30;;;;;;5057187;28;20416;-51
2022/03/08 01:52:53;;;;;;;1.90;1.37;;;2.80;38.20;;;;;;5057060;28;20455;-50
2022/03/08 01:55:19;;;;;;;4.53;1.73;;;2.80;38.00;;;;;;5057057;28;20899;-50
2022/03/08 01:57:47;;;;;;;4.07;3.58;;;2.80;38.20;;;;;;5055499;28;20243;-50
2022/03/08 02:00:19;;;;;;;2.90;2.38;;;3.60;38.70;;;;;;5056873;28;20203;-50
2022/03/08 02:02:45;;;;;;;3.83;2.70;;;2.70;38.30;;;;;;5055399;28;20184;-50
2022/03/08 02:05:11;;;;;;;4.25;2.13;;;2.70;38.40;;;;;;5056593;28;20173;-50
2022/03/08 02:07:37;;;;;;;3.30;2.83;;;2.70;38.40;;;;;;5056816;28;20184;-50
2022/03/08 02:10:06;;;;;;;2.97;2.60;;;2.60;38.30;;;;;;5057014;28;20497;-50
2022/03/08 02:12:32;;;;;;;4.05;2.50;;;2.60;38.30;;;;;;5054901;28;20474;-50
2022/03/08 02:14:58;;;;;;;1.40;1.07;;;2.60;38.10;;;;;;5056679;28;20162;-50
2022/03/08 02:17:24;;;;;;;2.07;1.87;;;2.50;38.50;;;;;;5055105;28;20412;-50
2022/03/08 02:19:50;;;;;;;6.68;1.90;;;2.50;38.60;;;;;;5055028;28;20231;-50
2022/03/08 02:22:15;;;;;;;1.77;1.40;;;2.40;38.90;;;;;;5055786;28;20168;-50
2022/03/08 02:24:41;;;;;;;6.23;1.97;;;2.40;38.80;;;;;;5054914;28;20502;-50
2022/03/08 02:27:07;;;;;;;16.40;5.40;;;2.40;38.80;;;;;;5056392;28;20177;-50
2022/03/08 02:29:33;;;;;;;1.80;1.30;;;2.40;38.60;;;;;;5056063;28;20563;-50
2022/03/08 02:31:59;;;;;;;2.70;2.27;;;2.40;38.60;;;;;;5056225;28;20279;-50
2022/03/08 02:34:25;;;;;;;5.57;2.60;;;2.40;38.60;;;;;;5054831;28;20422;-50
2022/03/08 02:37:07;;;;;;;2.40;1.53;;;2.40;38.80;;;;;;5056012;28;20416;-50
2022/03/08 02:39:33;;;;;;;4.18;2.65;;;2.30;38.80;;;;;;5054701;28;20167;-50
2022/03/08 02:42:00;;;;;;;2.10;1.70;;;2.30;38.80;;;;;;5054616;28;20176;-50
2022/03/08 02:44:26;;;;;;;3.05;2.75;;;2.30;38.80;;;;;;5054125;28;20275;-50
2022/03/08 02:46:52;;;;;;;2.70;2.00;;;2.30;38.70;;;;;;5055758;28;20195;-50
2022/03/08 02:49:18;;;;;;;6.78;2.45;;;2.30;38.70;;;;;;5055799;28;20175;-50
2022/03/08 02:51:44;;;;;;;2.37;1.40;;;2.30;38.60;;;;;;5055575;28;20202;-50
2022/03/08 02:54:09;;;;;;;2.77;2.37;;;2.30;38.50;;;;;;5055921;28;20415;-50
2022/03/08 02:56:35;;;;;;;4.33;2.90;;;2.30;38.50;;;;;;5055879;28;20195;-50
2022/03/08 02:59:01;;;;;;;2.23;1.83;;;2.20;38.70;;;;;;5056068;28;20167;-50
2022/03/08 03:01:26;;;;;;;4.00;2.10;;;2.10;38.80;;;;;;5054273;28;20419;-50
2022/03/08 03:03:52;;;;;;;2.80;1.67;;;2.10;39.10;;;;;;5055767;28;20303;-50
2022/03/08 03:06:18;;;;;;;2.37;1.63;;;2.10;39.10;;;;;;5055451;28;20168;-50
2022/03/08 03:08:43;;;;;;;4.30;2.63;;;2.10;39.10;;;;;;5055379;28;20176;-50
2022/03/08 03:11:09;;;;;;;2.77;2.10;;;2.10;39.00;;;;;;5055075;28;20183;-51
2022/03/08 03:13:35;;;;;;;1.73;1.43;;;2.70;39.00;;;;;;5055850;28;20183;-50
2022/03/08 03:16:00;;;;;;;3.27;1.60;;;2.10;38.80;;;;;;5055305;28;20216;-50
2022/03/08 03:18:26;;;;;;;4.70;1.67;;;2.10;39.10;;;;;;5055729;28;20205;-50
2022/03/08 03:20:52;;;;;;;3.93;2.40;;;2.10;38.70;;;;;;5055165;28;20636;-50
2022/03/08 03:23:17;;;;;;;1.60;1.43;;;2.00;38.70;;;;;;5055405;28;20200;-49
2022/03/08 03:25:43;;;;;;;3.23;2.13;;;2.00;38.70;;;;;;5055042;28;20628;-50
2022/03/08 03:28:09;;;;;;;4.20;1.50;;;2.00;38.70;;;;;;5055588;28;20172;-50
2022/03/08 03:30:35;;;;;;;2.33;1.57;;;2.00;38.70;;;;;;5055511;28;20616;-50
2022/03/08 03:33:02;;;;;;;2.70;2.50;;;2.00;38.70;;;;;;5053566;28;20242;-50
2022/03/08 03:35:28;;;;;;;4.70;3.05;;;2.00;38.70;;;;;;5055067;28;20426;-50
2022/03/08 03:37:54;;;;;;;3.17;1.30;;;1.90;38.70;;;;;;5054863;28;20191;-50
2022/03/08 03:40:19;;;;;;;4.23;2.30;;;1.90;38.90;;;;;;5055071;28;20549;-50
2022/03/08 03:42:45;;;;;;;1.73;0.70;;;1.90;39.00;;;;;;5055028;28;20198;-50
2022/03/08 03:45:11;;;;;;;4.13;2.70;;;1.90;38.90;;;;;;5054964;28;20167;-50
2022/03/08 03:47:37;;;;;;;1.63;1.27;;;2.70;39.10;;;;;;5053393;28;20262;-50
2022/03/08 03:50:05;;;;;;;2.75;1.85;;;1.90;38.80;;;;;;5054889;28;20231;-50
2022/03/08 03:52:31;;;;;;;2.40;1.08;;;1.90;38.60;;;;;;5054724;28;20200;-50
2022/03/08 03:54:57;;;;;;;2.03;1.70;;;1.90;38.80;;;;;;5054736;28;20262;-50
2022/03/08 03:57:22;;;;;;;3.20;2.67;;;1.80;38.60;;;;;;5052403;28;20173;-50
2022/03/08 03:59:48;;;;;;;1.73;1.60;;;2.50;39.10;;;;;;5053195;28;20168;-50
2022/03/08 04:02:14;;;;;;;2.53;1.43;;;1.70;38.70;;;;;;5054394;28;20530;-50
2022/03/08 04:04:39;;;;;;;4.43;3.30;;;1.80;38.90;;;;;;5054595;28;20172;-50
2022/03/08 04:07:05;;;;;;;6.83;2.43;;;1.70;38.80;;;;;;5054296;28;20171;-50
2022/03/08 04:09:31;;;;;;;3.07;2.20;;;1.70;38.90;;;;;;5054768;28;20164;-50
2022/03/08 04:11:57;;;;;;;3.27;1.63;;;2.40;38.90;;;;;;5052611;28;20505;-50
2022/03/08 04:14:23;;;;;;;1.60;1.47;;;1.70;38.80;;;;;;5052893;28;20172;-50
2022/03/08 04:16:48;;;;;;;4.07;1.60;;;1.70;38.60;;;;;;5052804;28;20419;-50
2022/03/08 04:19:15;;;;;;;3.33;3.07;;;1.70;38.70;;;;;;5054345;28;20625;-50
2022/03/08 04:21:40;;;;;;;2.00;1.45;;;1.80;38.70;;;;;;5054227;28;20180;-50
2022/03/08 04:24:06;;;;;;;3.37;3.10;;;1.70;38.70;;;;;;5052692;28;20546;-50
2022/03/08 04:26:32;;;;;;;1.83;1.03;;;1.70;38.70;;;;;;5054744;28;20180;-50
2022/03/08 04:28:58;;;;;;;2.47;2.27;;;1.70;39.00;;;;;;5054104;28;20422;-50
2022/03/08 04:31:23;;;;;;;5.13;2.00;;;1.60;38.90;;;;;;5054102;28;20172;-50
2022/03/08 04:33:49;;;;;;;2.80;1.23;;;1.70;39.00;;;;;;5053813;28;20174;-50
2022/03/08 04:36:15;;;;;;;2.53;1.47;;;1.60;39.10;;;;;;5054283;28;20171;-50
2022/03/08 04:38:40;;;;;;;4.33;2.27;;;1.60;39.20;;;;;;5053705;28;20194;-50
2022/03/08 04:41:18;;;;;;;3.07;1.23;;;1.60;39.10;;;;;;5053976;28;20169;-50
2022/03/08 04:43:53;;;;;;;3.72;2.25;;;1.60;39.00;;;;;;5054019;28;20628;-50
2022/03/08 04:46:18;;;;;;;1.07;0.53;;;1.60;39.00;;;;;;5053908;28;20180;-50
2022/03/08 04:48:44;;;;;;;1.90;1.67;;;1.60;39.00;;;;;;5052267;28;20169;-50
2022/03/08 04:51:10;;;;;;;2.07;1.00;;;1.60;39.00;;;;;;5053450;28;20175;-50
2022/03/08 04:53:35;;;;;;;2.73;1.67;;;2.10;39.10;;;;;;5053695;28;20210;-50
2022/03/08 04:56:01;;;;;;;29.63;1.67;;;1.50;39.00;;;;;;5053693;28;20204;-50
2022/03/08 04:58:27;;;;;;;2.03;1.13;;;1.60;39.00;;;;;;5052476;28;20188;-50
2022/03/08 05:00:52;;;;;;;10.93;2.50;;;1.50;39.10;;;;;;5053368;28;20529;-50
2022/03/08 05:03:18;;;;;;;5.00;2.83;;;1.50;39.20;;;;;;5053839;28;20175;-50
2022/03/08 05:05:44;;;;;;;5.33;2.50;;;1.50;39.10;;;;;;5053350;28;20223;-50
2022/03/08 05:08:10;;;;;;;4.77;2.33;;;1.50;39.20;;;;;;5052224;28;20175;-49
2022/03/08 05:10:35;;;;;;;3.03;1.67;;;1.50;39.20;;;;;;5051956;28;20176;-50
2022/03/08 05:13:03;;;;;;;1.73;1.40;;;1.50;39.10;;;;;;5051702;28;20483;-50
2022/03/08 05:15:29;;;;;;;2.22;2.00;;;1.50;39.20;;;;;;5054186;28;20461;-50
2022/03/08 05:17:55;;;;;;;3.10;2.05;;;1.40;39.20;;;;;;5053770;28;20172;-50
2022/03/08 05:20:21;;;;;;;3.50;3.20;;;1.30;39.60;;;;;;5053396;28;20577;-50
2022/03/08 05:22:46;;;;;;;2.50;1.80;;;1.40;39.50;;;;;;5053041;28;20831;-50
2022/03/08 05:25:12;;;;;;;2.40;1.47;;;2.00;39.60;;;;;;5053689;28;20665;-50
2022/03/08 05:27:39;;;;;;;4.30;2.43;;;1.40;39.40;;;;;;5053061;28;20164;-50
2022/03/08 05:30:05;;;;;;;2.30;1.20;;;1.40;39.20;;;;;;5053236;28;20891;-50
2022/03/08 05:32:31;;;;;;;4.18;1.70;;;1.40;39.20;;;;;;5053231;28;20225;-50
2022/03/08 05:34:57;;;;;;;4.50;2.70;;;1.40;39.00;;;;;;5053153;28;20524;-50
2022/03/08 05:37:23;;;;;;;3.87;2.33;;;1.40;39.20;;;;;;5053240;28;20186;-50
2022/03/08 05:39:48;;;;;;;1.87;0.80;;;1.40;39.10;;;;;;5053021;28;20533;-50
2022/03/08 05:42:14;;;;;;;3.00;1.47;;;1.40;39.00;;;;;;5052980;28;20429;-50
2022/03/08 05:44:40;;;;;;;1.87;1.63;;;2.30;39.50;;;;;;5053199;28;20172;-50
2022/03/08 05:47:06;;;;;;;1.83;1.17;;;2.40;39.70;;;;;;5053152;28;20259;-50
2022/03/08 05:49:32;;;;;;;2.15;1.92;;;1.30;39.50;;;;;;5053091;28;20253;-50
2022/03/08 05:51:57;;;;;;;4.90;2.40;;;1.30;39.40;;;;;;5052975;28;20265;-50
2022/03/08 05:54:23;;;;;;;5.57;1.50;;;2.50;39.80;;;;;;5051790;28;20180;-50
2022/03/08 05:56:49;;;;;;;1.83;0.90;;;1.40;39.20;;;;;;5053043;28;20507;-50
2022/03/08 05:59:16;;;;;;;5.33;2.30;;;1.30;39.20;;;;;;5052948;28;20168;-50
2022/03/08 06:01:42;;;;;;;7.75;5.25;;;1.40;39.30;;;;;;5053050;28;20203;-50
2022/03/08 06:04:07;;;;;;;4.80;3.03;;;1.40;39.40;;;;;;5052750;28;20229;-50
2022/03/08 06:06:33;;;;;;;10.60;4.50;;;1.50;39.40;;;;;;5053151;28;20963;-50
2022/03/08 06:08:59;;;;;;;2.77;2.40;;;1.50;39.50;;;;;;5051276;28;20644;-50
2022/03/08 06:11:25;;;;;;;2.30;1.97;;;2.60;39.80;;;;;;5051280;28;20220;-50
2022/03/08 06:13:50;;;;;;;2.77;1.97;;;1.60;39.40;;;;;;5051303;28;20205;-50
2022/03/08 06:16:16;;;;;;;9.27;3.07;;;1.60;39.40;;;;;;5052705;28;20175;-50
2022/03/08 06:18:42;;;;;;;6.43;2.80;;;1.70;39.40;;;;;;5051309;28;20180;-50
2022/03/08 06:21:07;;;;;;;2.10;1.17;;;1.70;39.40;;;;;;5056177;28;20172;-50
2022/03/08 06:23:33;;;;;;;4.07;2.53;;;1.80;39.40;;;;;;5056421;28;20203;-50
2022/03/08 06:25:59;;;;;;;3.37;2.60;;;1.90;39.80;;;;;;5056105;28;20179;-50
2022/03/08 06:28:25;;;;;;;9.33;5.50;;;2.00;39.60;;;;;;5054780;28;20443;-50
2022/03/08 06:30:50;;;;;;;6.10;5.13;;;2.20;39.60;;;;;;5056047;28;20461;-50
2022/03/08 06:33:16;;;;;;;2.77;2.50;;;2.40;39.50;;;;;;5056343;28;20287;-50
2022/03/08 06:35:42;;;;;;;6.60;2.70;;;2.60;39.40;;;;;;5055866;28;20168;-50
2022/03/08 06:38:08;;;;;;;10.90;4.30;;;2.70;39.30;;;;;;5056140;28;20411;-50
2022/03/08 06:40:33;;;;;;;2.53;1.80;;;2.70;39.20;;;;;;5056122;28;20164;-50
2022/03/08 06:42:59;;;;;;;6.03;3.90;;;2.80;39.20;;;;;;5055811;28;20207;-50
2022/03/08 06:45:25;;;;;;;4.73;3.43;;;2.90;39.20;;;;;;5055991;28;20177;-50
2022/03/08 06:47:50;;;;;;;4.90;4.07;;;2.90;39.20;;;;;;5071883;28;20655;-50
2022/03/08 06:50:16;;;;;;;10.97;6.13;;;4.30;39.80;;;;;;5075683;28;20179;-50
2022/03/08 06:52:42;;;;;;;8.27;5.00;;;3.10;39.30;;;;;;5074331;28;20203;-50
2022/03/08 06:55:08;;;;;;;9.80;5.13;;;3.20;39.30;;;;;;5075670;28;20409;-50
2022/03/08 06:57:34;;;;;;;4.50;2.83;;;3.30;39.50;;;;;;5075885;28;20229;-50
2022/03/08 07:00:00;;;;;;;5.20;4.20;;;3.40;39.50;;;;;;5075514;28;20176;-50
2022/03/08 07:02:26;;;;;;;6.70;5.67;;;3.50;39.70;;;;;;5075450;28;20192;-50
2022/03/08 07:04:51;;;;;;;7.80;5.03;;;3.60;39.60;;;;;;5074166;28;20582;-50
2022/03/08 07:07:17;;;;;;;5.13;3.17;;;3.70;39.70;;;;;;5074168;28;20418;-50
2022/03/08 07:09:43;;;;;;;4.77;2.90;;;3.90;39.90;;;;;;5075412;28;20173;-50
2022/03/08 07:12:09;;;;;;;3.63;3.33;;;4.00;39.80;;;;;;5075056;28;20219;-50
2022/03/08 07:14:35;;;;;;;5.10;4.35;;;4.10;39.90;;;;;;5075419;28;20218;-50
2022/03/08 07:17:00;;;;;;;5.63;3.93;;;4.20;39.90;;;;;;5075535;28;20587;-50
2022/03/08 07:19:26;;;;;;;7.53;5.10;;;4.40;40.00;;;;;;5075200;28;20418;-50
2022/03/08 07:21:52;;;;;;;4.90;3.50;;;4.40;39.90;;;;;;5075159;28;20169;-50
2022/03/08 07:24:17;;;;;;;6.10;4.20;;;4.50;40.10;;;;;;5075354;28;20263;-50
2022/03/08 07:26:43;;;;;;;5.30;3.40;;;4.70;40.00;;;;;;5075197;28;20410;-50
2022/03/08 07:29:09;;;;;;;7.90;4.60;;;5.20;40.20;;;;;;5075095;28;20171;-50
2022/03/08 07:31:35;;;;;;;3.83;3.53;;;5.10;40.00;;;;;;5074882;28;20411;-50
2022/03/08 07:34:01;;;;;;;4.32;3.30;;;5.20;39.80;;;;;;5075016;28;20407;-50
2022/03/08 07:36:27;;;;;;;4.67;4.13;;;5.20;39.70;;;;;;5074827;28;20180;-50
2022/03/08 07:38:53;;;;;;;5.40;4.90;;;5.40;39.60;;;;;;5075020;28;20164;-50
2022/03/08 07:41:19;;;;;;;5.90;4.70;;;5.50;39.60;;;;;;5074781;28;20533;-50
2022/03/08 07:43:44;;;;;;;7.17;3.53;;;5.70;39.60;;;;;;5074713;28;20169;-50
2022/03/08 07:46:10;;;;;;;10.30;5.37;;;5.80;39.10;;;;;;5074572;28;20971;-50
2022/03/08 07:48:37;;;;;;;7.07;4.30;;;6.00;38.80;;;;;;5074605;28;20176;-50
2022/03/08 07:51:03;;;;;;;9.02;4.70;;;6.10;38.90;;;;;;5074544;28;20169;-51
2022/03/08 07:53:29;;;;;;;10.40;5.10;;;6.20;38.80;;;;;;5074367;28;20200;-49
2022/03/08 07:55:55;;;;;;;5.67;3.00;;;6.30;38.20;;;;;;5074518;28;20164;-50
2022/03/08 07:58:21;;;;;;;7.43;4.50;;;6.40;38.40;;;;;;5074363;28;20411;-50
2022/03/08 08:00:47;;;;;;;5.30;4.50;;;6.50;38.20;;;;;;5074632;28;20484;-50
2022/03/08 08:03:12;;;;;;;6.47;5.80;;;6.60;38.20;;;;;;5074363;28;20949;-50
2022/03/08 08:05:39;;;;;;;8.80;4.80;;;6.80;38.20;;;;;;5074396;28;20419;-50
2022/03/08 08:08:06;;;;;;;9.48;5.10;;;7.00;38.00;;;;;;5074298;28;20514;-50
2022/03/08 08:10:32;;;;;;;5.07;4.00;;;7.10;37.70;;;;;;5074277;28;20539;-50
2022/03/08 08:12:59;;;;;;;4.60;4.07;;;7.30;37.20;;;;;;5073941;28;20220;-50
2022/03/08 08:15:25;;;;;;;8.00;3.55;;;7.40;37.80;;;;;;5074135;28;20697;-50
2022/03/08 08:17:51;;;;;;;6.13;3.95;;;7.60;37.50;;;;;;5074144;28;20625;-50
2022/03/08 08:20:17;;;;;;;4.97;4.47;;;7.80;37.40;;;;;;5074040;28;20247;-50
2022/03/08 08:22:43;;;;;;;10.68;4.90;;;8.00;37.60;;;;;;5072690;28;20176;-50
2022/03/08 08:25:10;;;;;;;5.47;4.45;;;8.10;35.70;;;;;;5073966;28;20260;-50
2022/03/08 08:27:37;;;;;;;6.95;4.15;;;8.20;36.50;;;;;;5073945;28;20259;-50
2022/03/08 08:30:04;;;;;;;5.72;3.60;;;8.40;36.20;;;;;;5072999;28;20192;-50
2022/03/08 08:32:30;;;;;;;5.15;3.42;;;8.40;35.80;;;;;;5073652;28;20204;-49
2022/03/08 08:34:55;;;;;;;4.40;3.97;;;8.60;35.50;;;;;;5073880;28;20277;-49
2022/03/08 08:37:21;;;;;;;5.80;3.67;;;8.70;35.50;;;;;;5074033;28;20169;-49
2022/03/08 08:39:47;;;;;;;3.50;3.20;;;8.80;35.90;;;;;;5073718;28;20254;-49
2022/03/08 08:42:13;;;;;;;12.10;3.50;;;9.00;35.90;;;;;;5073222;28;20403;-49
2022/03/08 08:44:38;;;;;;;6.17;4.57;;;9.20;34.70;;;;;;5073628;28;20198;-49
2022/03/08 08:47:04;;;;;;;4.13;3.07;;;9.30;35.50;;;;;;5071706;28;20471;-49
2022/03/08 08:49:30;;;;;;;6.85;3.58;;;9.40;35.70;;;;;;5073652;28;20175;-49
2022/03/08 08:51:56;;;;;;;6.00;3.40;;;9.50;34.20;;;;;;5073557;28;20202;-49
2022/03/08 08:54:23;;;;;;;7.27;3.50;;;9.50;33.80;;;;;;5072865;28;20195;-49
2022/03/08 08:56:48;;;;;;;7.82;3.67;;;9.60;33.70;;;;;;5073419;28;20175;-49
2022/03/08 08:59:15;;;;;;;7.47;3.30;;;9.70;32.90;;;;;;5073486;28;20685;-49
2022/03/08 09:01:40;;;;;;;6.82;3.53;;;9.80;33.10;;;;;;5072544;28;20648;-49
2022/03/08 09:04:06;;;;;;;5.33;3.17;;;9.80;33.20;;;;;;5073517;28;20186;-49
2022/03/08 09:06:32;;;;;;;3.70;3.10;;;9.90;33.80;;;;;;5073379;28;20196;-49
2022/03/08 09:08:59;;;;;;;6.40;3.20;;;10.10;34.40;;;;;;5072116;28;20173;-49
2022/03/08 09:11:25;;;;;;;5.60;3.97;;;10.20;33.60;;;;;;5073117;28;20229;-50
2022/03/08 09:13:51;;;;;;;3.25;2.45;;;10.50;33.70;;;;;;5073282;28;20256;-49
2022/03/08 09:16:17;;;;;;;7.88;3.33;;;10.70;34.10;;;;;;5073326;28;20168;-49
2022/03/08 09:18:44;;;;;;;7.83;3.50;;;10.90;32.80;;;;;;5073236;28;20178;-49
2022/03/08 09:21:10;;;;;;;5.95;3.38;;;11.10;33.00;;;;;;5073474;28;20164;-49
2022/03/08 09:23:37;;;;;;;5.28;3.83;;;11.20;32.10;;;;;;5073353;28;20175;-49
2022/03/08 09:26:03;;;;;;;4.53;2.75;;;11.30;31.00;;;;;;5073360;28;20260;-49
2022/03/08 09:28:29;;;;;;;7.22;4.57;;;11.30;31.70;;;;;;5073340;28;20196;-49
2022/03/08 09:30:55;;;;;;;5.35;3.72;;;11.40;31.60;;;;;;5073206;28;20172;-49
2022/03/08 09:33:21;;;;;;;4.90;3.13;;;11.50;32.40;;;;;;5073101;28;20668;-50
2022/03/08 09:35:47;;;;;;;4.50;3.37;;;11.60;30.50;;;;;;5072311;28;20173;-50
2022/03/08 09:38:13;;;;;;;6.20;3.57;;;11.60;31.80;;;;;;5055181;28;20168;-50
2022/03/08 09:40:39;;;;;;;3.80;2.85;;;11.70;31.70;;;;;;5071832;28;20222;-49
2022/03/08 09:43:05;;;;;;;6.30;3.05;;;11.90;30.30;;;;;;5073061;28;20169;-49
2022/03/08 09:45:31;;;;;;;6.57;3.85;;;11.80;30.10;;;;;;5073107;28;20172;-49
2022/03/08 09:47:57;;;;;;;10.35;3.25;;;11.80;30.20;;;;;;5072986;28;20177;-49
2022/03/08 09:50:23;;;;;;;5.10;3.37;;;11.90;30.80;;;;;;5073057;28;20161;-49
2022/03/08 09:52:51;;;;;;;4.57;3.05;;;11.90;30.10;;;;;;5072919;28;20188;-49
2022/03/08 09:55:17;;;;;;;5.85;3.80;;;11.90;30.00;;;;;;5074497;28;20176;-49
2022/03/08 09:57:43;;;;;;;6.30;3.63;;;12.00;31.00;;;;;;5076830;28;20194;-49
2022/03/08 10:00:10;;;;;;;6.03;3.97;;;12.20;30.30;;;;;;5076729;28;20160;-49
2022/03/08 10:02:54;;;;;;;6.25;3.47;;;12.30;30.60;;;;;;5076932;28;20169;-49
2022/03/08 10:05:39;;;;;;;4.78;3.20;;;12.50;29.90;;;;;;5076715;28;20157;-50
2022/03/08 10:08:21;;;;;;;11.10;4.28;;;12.50;28.60;;;;;;5076795;28;20155;-49
2022/03/08 10:11:00;;;;;;;3.38;2.95;;;12.50;28.00;;;;;;5076602;28;20157;-49
2022/03/08 10:13:29;;;;;;;5.68;3.33;;;12.40;29.70;;;;;;5076220;28;20549;-49
2022/03/08 10:16:25;;;;;;;7.55;2.90;;;12.60;30.40;;;;;;5076255;28;20215;-49
2022/03/08 10:19:02;;;;;;;4.97;2.70;;;12.80;29.80;;;;;;5076456;28;20165;-49
2022/03/08 10:21:36;;;;;;;4.28;2.53;;;13.00;29.20;;;;;;5076397;28;20606;-49
2022/03/08 10:24:13;;;;;;;4.68;2.58;;;12.90;26.60;;;;;;5076263;28;20159;-49
2022/03/08 10:26:56;;;;;;;5.40;3.20;;;12.70;27.80;;;;;;5076499;28;20160;-49
2022/03/08 10:29:29;;;;;;;5.55;2.70;;;12.90;28.80;;;;;;5076281;28;20157;-49
2022/03/08 10:32:18;;;;;;;5.10;3.22;;;13.10;27.40;;;;;;5076106;28;20207;-49
2022/03/08 10:34:50;;;;;;;3.15;2.85;;;13.00;28.20;;;;;;5076085;28;20763;-49
2022/03/08 10:37:20;;;;;;;4.35;2.85;;;13.10;27.30;;;;;;5076185;28;20172;-49
2022/03/08 10:39:57;;;;;;;4.18;2.70;;;13.20;27.00;;;;;;5076223;28;20169;-49
2022/03/08 10:42:31;;;;;;;4.63;3.35;;;13.20;26.70;;;;;;5076242;28;20173;-50
2022/03/08 10:45:17;;;;;;;3.47;2.42;;;13.30;26.30;;;;;;5076237;28;20148;-49
2022/03/08 10:47:42;;;;;;;4.00;2.78;;;13.60;28.30;;;;;;5075808;28;20619;-50
2022/03/08 10:50:13;;;;;;;9.00;2.80;;;14.10;29.00;;;;;;5075879;28;20168;-50
2022/03/08 10:52:41;;;;;;;2.70;1.60;;;14.60;28.90;;;;;;5075618;28;20196;-50
2022/03/08 10:55:11;;;;;;;3.78;2.38;;;15.00;24.90;;;;;;5075789;28;20179;-50
2022/03/08 10:57:38;;;;;;;2.95;2.00;;;15.00;24.80;;;;;;5075914;28;20168;-50
2022/03/08 11:00:09;;;;;;;3.30;2.53;;;15.00;24.50;;;;;;5075634;28;20524;-50
2022/03/08 11:02:45;;;;;;;5.00;2.47;;;15.00;25.10;;;;;;5075665;28;20160;-50
2022/03/08 11:05:11;;;;;;;5.03;2.20;;;15.20;26.90;;;;;;5075340;28;20549;-50
2022/03/08 11:07:38;;;;;;;5.00;3.38;;;15.50;25.60;;;;;;5075418;28;20188;-50
2022/03/08 11:10:06;;;;;;;6.20;3.33;;;15.60;23.70;;;;;;5075793;28;20571;-50
2022/03/08 11:12:32;;;;;;;4.18;2.15;;;15.70;25.10;;;;;;5073812;28;20224;-50
2022/03/08 11:14:57;;;;;;;4.07;3.13;;;15.90;22.60;;;;;;5074098;28;20182;-50
2022/03/08 11:17:24;;;;;;;7.00;2.50;;;16.20;25.20;;;;;;5075351;28;20907;-50
2022/03/08 11:19:50;;;;;;;4.40;2.70;;;16.50;24.00;;;;;;5075387;28;20179;-50
2022/03/08 11:22:18;;;;;;;7.30;2.50;;;16.70;23.40;;;;;;5075295;28;20165;-50
2022/03/08 11:24:46;;;;;;;3.05;1.83;;;17.00;21.40;;;;;;5075120;28;20411;-50
2022/03/08 11:27:14;;;;;;;3.78;2.20;;;17.00;20.00;;;;;;5075208;28;20193;-50
2022/03/08 11:29:40;;;;;;;5.63;2.40;;;16.80;22.40;;;;;;5075150;28;20172;-50
2022/03/08 11:32:13;;;;;;;2.72;2.00;;;16.90;20.60;;;;;;5074901;28;20243;-50
2022/03/08 11:34:43;;;;;;;2.92;1.85;;;16.80;18.60;;;;;;5074967;28;20160;-50
2022/03/08 11:37:22;;;;;;;2.92;2.20;;;16.70;20.10;;;;;;5075241;28;20176;-50
2022/03/08 11:40:13;;;;;;;2.60;1.70;;;17.00;21.70;;;;;;5074948;28;20149;-50
2022/03/08 11:42:50;;;;;;;3.78;1.67;;;17.40;20.10;;;;;;5074844;28;20169;-50
2022/03/08 11:45:20;;;;;;;4.15;1.90;;;17.80;21.00;;;;;;5074908;28;20161;-50
2022/03/08 11:47:57;;;;;;;5.93;1.55;;;18.20;22.00;;;;;;5074668;28;20161;-50
2022/03/08 11:50:39;;;;;;;4.63;1.75;;;18.60;21.00;;;;;;5074744;28;20148;-50
2022/03/08 11:53:13;;;;;;;1.40;0.90;;;18.80;17.80;;;;;;5074839;28;20602;-50
2022/03/08 11:55:48;;;;;;;1.85;1.17;;;18.90;18.10;;;;;;5074556;28;20160;-50
2022/03/08 11:58:20;;;;;;;1.30;0.65;;;18.80;14.50;;;;;;5074493;28;20179;-50
2022/03/08 12:00:59;;;;;;;1.88;0.68;;;18.70;18.10;;;;;;5074511;28;20165;-50
2022/03/08 12:03:24;;;;;;;2.20;0.98;;;18.80;19.70;;;;;;5074388;28;20157;-50
2022/03/08 12:06:09;;;;;;;1.40;0.97;;;19.00;18.80;;;;;;5074303;28;20297;-50
2022/03/08 12:08:38;;;;;;;1.50;0.80;;;19.20;18.70;;;;;;5074577;28;20543;-50
2022/03/08 12:11:17;;;;;;;3.85;1.40;;;19.20;18.50;;;;;;5074453;28;20207;-51
2022/03/08 12:13:47;;;;;;;2.13;1.08;;;19.40;14.40;;;;;;5074049;28;20195;-50
2022/03/08 12:16:25;;;;;;;2.13;1.33;;;19.20;14.50;;;;;;5074236;28;20157;-49
2022/03/08 12:18:55;;;;;;;1.80;1.10;;;19.10;16.10;;;;;;5073703;28;20164;-50
2022/03/08 12:21:20;;;;;;;2.58;1.20;;;19.20;18.20;;;;;;5074279;28;20540;-50
2022/03/08 12:23:58;;;;;;;1.60;0.90;;;19.60;18.10;;;;;;5073930;28;20168;-50
2022/03/08 12:26:30;;;;;;;1.52;0.82;;;19.80;17.50;;;;;;5073946;28;20271;-50
2022/03/08 12:29:02;;;;;;;4.80;1.15;;;19.90;17.10;;;;;;5073829;28;20175;-50
2022/03/08 12:31:28;;;;;;;2.10;1.00;;;19.90;17.60;;;;;;5073999;28;20516;-50
2022/03/08 12:34:00;;;;;;;1.43;1.00;;;20.00;16.70;;;;;;5073702;28;20204;-50
2022/03/08 12:36:28;;;;;;;1.63;0.90;;;20.10;17.00;;;;;;5073794;28;20640;-50
2022/03/08 12:38:54;;;;;;;1.98;1.40;;;20.10;17.10;;;;;;5074029;28;20176;-49
2022/03/08 12:41:27;;;;;;;1.50;0.70;;;20.20;17.30;;;;;;5073851;28;20164;-49
2022/03/08 12:44:01;;;;;;;1.40;0.77;;;20.20;14.50;;;;;;5073810;28;20238;-50
2022/03/08 12:46:28;;;;;;;2.55;1.17;;;20.00;14.90;;;;;;5073831;28;20183;-50
2022/03/08 12:48:54;;;;;;;1.60;0.93;;;19.90;16.60;;;;;;5073626;28;20665;-50
2022/03/08 12:51:23;;;;;;;2.00;0.80;;;20.10;17.50;;;;;;5073591;28;20183;-50
2022/03/08 12:54:00;;;;;;;2.15;1.00;;;20.30;16.10;;;;;;5073461;28;20283;-50